sensor_id;sensor_type;location;lat;lon;timestamp;P1;durP1;ratioP1;P2;durP2;ratioP2
44536;SDS011;30245;51.966;6.292;2023-08-12T00:01:03;5.55;;;3.85;;
44536;SDS011;30245;51.966;6.292;2023-08-12T00:03:28;6.15;;;4.80;;
44536;SDS011;30245;51.966;6.292;2023-08-12T00:05:54;8.00;;;5.00;;
44536;SDS011;30245;51.966;6.292;2023-08-12T00:08:21;5.82;;;4.95;;
44536;SDS011;30245;51.966;6.292;2023-08-12T00:10:47;6.97;;;5.45;;
44536;SDS011;30245;51.966;6.292;2023-08-12T00:13:13;7.22;;;5.90;;
44536;SDS011;30245;51.966;6.292;2023-08-12T00:15:42;7.93;;;5.63;;
44536;SDS011;30245;51.966;6.292;2023-08-12T00:18:08;10.32;;;5.00;;
44536;SDS011;30245;51.966;6.292;2023-08-12T00:20:34;7.13;;;5.55;;
44536;SDS011;30245;51.966;6.292;2023-08-12T00:23:00;6.28;;;4.65;;
44536;SDS011;30245;51.966;6.292;2023-08-12T00:25:25;8.05;;;4.82;;
44536;SDS011;30245;51.966;6.292;2023-08-12T00:27:51;7.05;;;5.10;;
44536;SDS011;30245;51.966;6.292;2023-08-12T00:30:17;6.63;;;5.93;;
44536;SDS011;30245;51.966;6.292;2023-08-12T00:32:43;9.40;;;5.13;;
44536;SDS011;30245;51.966;6.292;2023-08-12T00:35:08;11.25;;;4.95;;
44536;SDS011;30245;51.966;6.292;2023-08-12T00:37:34;5.32;;;4.75;;
44536;SDS011;30245;51.966;6.292;2023-08-12T00:39:59;6.22;;;4.22;;
44536;SDS011;30245;51.966;6.292;2023-08-12T00:42:25;7.40;;;4.90;;
44536;SDS011;30245;51.966;6.292;2023-08-12T00:44:51;5.68;;;5.07;;
44536;SDS011;30245;51.966;6.292;2023-08-12T00:47:16;5.78;;;4.75;;
44536;SDS011;30245;51.966;6.292;2023-08-12T00:49:42;5.15;;;4.65;;
44536;SDS011;30245;51.966;6.292;2023-08-12T00:52:11;5.88;;;4.38;;
44536;SDS011;30245;51.966;6.292;2023-08-12T00:54:38;6.85;;;5.32;;
44536;SDS011;30245;51.966;6.292;2023-08-12T00:57:04;6.63;;;5.25;;
44536;SDS011;30245;51.966;6.292;2023-08-12T00:59:31;6.90;;;5.30;;
44536;SDS011;30245;51.966;6.292;2023-08-12T01:01:59;5.82;;;5.22;;
44536;SDS011;30245;51.966;6.292;2023-08-12T01:04:25;6.47;;;5.55;;
44536;SDS011;30245;51.966;6.292;2023-08-12T01:06:52;6.50;;;5.07;;
44536;SDS011;30245;51.966;6.292;2023-08-12T01:09:17;6.60;;;4.97;;
44536;SDS011;30245;51.966;6.292;2023-08-12T01:14:23;7.53;;;6.25;;
44536;SDS011;30245;51.966;6.292;2023-08-12T01:16:55;8.95;;;6.75;;
44536;SDS011;30245;51.966;6.292;2023-08-12T01:22:21;7.95;;;6.20;;
44536;SDS011;30245;51.966;6.292;2023-08-12T01:24:48;9.73;;;7.53;;
44536;SDS011;30245;51.966;6.292;2023-08-12T01:27:16;10.25;;;8.00;;
44536;SDS011;30245;51.966;6.292;2023-08-12T01:29:42;13.68;;;9.93;;
44536;SDS011;30245;51.966;6.292;2023-08-12T01:32:30;11.18;;;8.30;;
44536;SDS011;30245;51.966;6.292;2023-08-12T01:35:01;12.05;;;10.20;;
44536;SDS011;30245;51.966;6.292;2023-08-12T01:37:32;16.38;;;11.52;;
44536;SDS011;30245;51.966;6.292;2023-08-12T01:42:29;10.98;;;9.90;;
44536;SDS011;30245;51.966;6.292;2023-08-12T01:44:57;10.43;;;9.10;;
44536;SDS011;30245;51.966;6.292;2023-08-12T01:47:22;13.30;;;10.52;;
44536;SDS011;30245;51.966;6.292;2023-08-12T01:49:48;12.15;;;9.73;;
44536;SDS011;30245;51.966;6.292;2023-08-12T01:52:13;12.70;;;11.43;;
44536;SDS011;30245;51.966;6.292;2023-08-12T01:54:39;14.82;;;10.82;;
44536;SDS011;30245;51.966;6.292;2023-08-12T01:57:05;12.57;;;11.27;;
44536;SDS011;30245;51.966;6.292;2023-08-12T01:59:32;11.32;;;10.02;;
44536;SDS011;30245;51.966;6.292;2023-08-12T02:01:57;15.23;;;11.13;;
44536;SDS011;30245;51.966;6.292;2023-08-12T02:04:23;12.13;;;10.38;;
44536;SDS011;30245;51.966;6.292;2023-08-12T02:06:49;12.25;;;9.75;;
44536;SDS011;30245;51.966;6.292;2023-08-12T02:09:15;12.50;;;10.23;;
44536;SDS011;30245;51.966;6.292;2023-08-12T02:11:40;10.93;;;9.07;;
44536;SDS011;30245;51.966;6.292;2023-08-12T02:14:06;13.43;;;9.77;;
44536;SDS011;30245;51.966;6.292;2023-08-12T02:16:31;11.20;;;9.55;;
44536;SDS011;30245;51.966;6.292;2023-08-12T02:18:57;11.63;;;10.48;;
44536;SDS011;30245;51.966;6.292;2023-08-12T02:21:23;10.70;;;9.30;;
44536;SDS011;30245;51.966;6.292;2023-08-12T02:23:48;10.05;;;9.07;;
44536;SDS011;30245;51.966;6.292;2023-08-12T02:26:14;10.60;;;9.60;;
44536;SDS011;30245;51.966;6.292;2023-08-12T02:28:40;9.73;;;8.82;;
44536;SDS011;30245;51.966;6.292;2023-08-12T02:31:06;11.15;;;8.82;;
44536;SDS011;30245;51.966;6.292;2023-08-12T02:33:31;8.57;;;7.80;;
44536;SDS011;30245;51.966;6.292;2023-08-12T02:35:57;9.00;;;8.13;;
44536;SDS011;30245;51.966;6.292;2023-08-12T02:38:22;8.70;;;7.82;;
44536;SDS011;30245;51.966;6.292;2023-08-12T02:40:48;11.30;;;8.65;;
44536;SDS011;30245;51.966;6.292;2023-08-12T02:43:15;11.15;;;8.82;;
44536;SDS011;30245;51.966;6.292;2023-08-12T02:45:41;7.60;;;6.97;;
44536;SDS011;30245;51.966;6.292;2023-08-12T02:48:07;11.90;;;7.28;;
44536;SDS011;30245;51.966;6.292;2023-08-12T02:50:34;8.98;;;7.68;;
44536;SDS011;30245;51.966;6.292;2023-08-12T02:53:00;9.63;;;6.95;;
44536;SDS011;30245;51.966;6.292;2023-08-12T02:55:25;11.75;;;6.97;;
44536;SDS011;30245;51.966;6.292;2023-08-12T02:57:51;10.25;;;7.95;;
44536;SDS011;30245;51.966;6.292;2023-08-12T03:00:17;5.90;;;5.35;;
44536;SDS011;30245;51.966;6.292;2023-08-12T03:02:42;7.35;;;6.55;;
44536;SDS011;30245;51.966;6.292;2023-08-12T03:05:08;5.90;;;4.75;;
44536;SDS011;30245;51.966;6.292;2023-08-12T03:07:34;8.50;;;5.70;;
44536;SDS011;30245;51.966;6.292;2023-08-12T03:09:59;9.32;;;6.03;;
44536;SDS011;30245;51.966;6.292;2023-08-12T03:12:25;6.68;;;5.43;;
44536;SDS011;30245;51.966;6.292;2023-08-12T03:14:51;4.93;;;4.53;;
44536;SDS011;30245;51.966;6.292;2023-08-12T03:17:16;9.68;;;5.15;;
44536;SDS011;30245;51.966;6.292;2023-08-12T03:19:42;5.53;;;4.97;;
44536;SDS011;30245;51.966;6.292;2023-08-12T03:22:08;6.40;;;4.60;;
44536;SDS011;30245;51.966;6.292;2023-08-12T03:24:33;6.45;;;4.53;;
44536;SDS011;30245;51.966;6.292;2023-08-12T03:26:59;4.88;;;4.25;;
44536;SDS011;30245;51.966;6.292;2023-08-12T03:29:24;4.32;;;3.92;;
44536;SDS011;30245;51.966;6.292;2023-08-12T03:31:50;4.80;;;4.13;;
44536;SDS011;30245;51.966;6.292;2023-08-12T03:34:16;8.40;;;5.20;;
44536;SDS011;30245;51.966;6.292;2023-08-12T03:36:41;5.57;;;4.93;;
44536;SDS011;30245;51.966;6.292;2023-08-12T03:39:07;4.78;;;4.32;;
44536;SDS011;30245;51.966;6.292;2023-08-12T03:41:33;4.55;;;4.15;;
44536;SDS011;30245;51.966;6.292;2023-08-12T03:43:58;5.15;;;4.32;;
44536;SDS011;30245;51.966;6.292;2023-08-12T03:46:24;7.00;;;4.35;;
44536;SDS011;30245;51.966;6.292;2023-08-12T03:48:50;3.38;;;3.00;;
44536;SDS011;30245;51.966;6.292;2023-08-12T03:51:15;6.22;;;3.63;;
44536;SDS011;30245;51.966;6.292;2023-08-12T03:53:41;5.20;;;3.67;;
44536;SDS011;30245;51.966;6.292;2023-08-12T03:56:07;5.88;;;3.70;;
44536;SDS011;30245;51.966;6.292;2023-08-12T03:58:32;4.07;;;3.28;;
44536;SDS011;30245;51.966;6.292;2023-08-12T04:00:58;6.50;;;3.45;;
44536;SDS011;30245;51.966;6.292;2023-08-12T04:03:24;5.65;;;3.92;;
44536;SDS011;30245;51.966;6.292;2023-08-12T04:05:50;5.88;;;3.10;;
44536;SDS011;30245;51.966;6.292;2023-08-12T04:08:17;6.05;;;3.50;;
44536;SDS011;30245;51.966;6.292;2023-08-12T04:10:47;8.30;;;4.72;;
44536;SDS011;30245;51.966;6.292;2023-08-12T04:13:13;4.40;;;4.00;;
44536;SDS011;30245;51.966;6.292;2023-08-12T04:15:39;3.90;;;3.17;;
44536;SDS011;30245;51.966;6.292;2023-08-12T04:18:05;5.50;;;3.55;;
44536;SDS011;30245;51.966;6.292;2023-08-12T04:20:31;5.38;;;4.13;;
44536;SDS011;30245;51.966;6.292;2023-08-12T04:22:56;2.75;;;2.40;;
44536;SDS011;30245;51.966;6.292;2023-08-12T04:25:22;5.53;;;3.38;;
44536;SDS011;30245;51.966;6.292;2023-08-12T04:27:48;5.35;;;3.65;;
44536;SDS011;30245;51.966;6.292;2023-08-12T04:30:15;7.45;;;3.75;;
44536;SDS011;30245;51.966;6.292;2023-08-12T04:32:41;6.28;;;3.90;;
44536;SDS011;30245;51.966;6.292;2023-08-12T04:35:07;3.40;;;2.95;;
44536;SDS011;30245;51.966;6.292;2023-08-12T04:37:33;6.43;;;3.58;;
44536;SDS011;30245;51.966;6.292;2023-08-12T04:40:00;3.53;;;3.28;;
44536;SDS011;30245;51.966;6.292;2023-08-12T04:42:26;2.67;;;2.47;;
44536;SDS011;30245;51.966;6.292;2023-08-12T04:44:51;3.97;;;3.30;;
44536;SDS011;30245;51.966;6.292;2023-08-12T04:47:17;6.03;;;3.70;;
44536;SDS011;30245;51.966;6.292;2023-08-12T04:49:42;4.63;;;3.00;;
44536;SDS011;30245;51.966;6.292;2023-08-12T04:52:08;5.22;;;3.63;;
44536;SDS011;30245;51.966;6.292;2023-08-12T04:54:34;4.88;;;3.85;;
44536;SDS011;30245;51.966;6.292;2023-08-12T04:56:59;11.80;;;4.88;;
44536;SDS011;30245;51.966;6.292;2023-08-12T04:59:25;4.72;;;4.15;;
44536;SDS011;30245;51.966;6.292;2023-08-12T05:01:50;4.47;;;3.97;;
44536;SDS011;30245;51.966;6.292;2023-08-12T05:04:16;4.65;;;4.35;;
44536;SDS011;30245;51.966;6.292;2023-08-12T05:06:42;5.15;;;4.75;;
44536;SDS011;30245;51.966;6.292;2023-08-12T05:09:07;7.15;;;3.42;;
44536;SDS011;30245;51.966;6.292;2023-08-12T05:11:33;5.13;;;4.63;;
44536;SDS011;30245;51.966;6.292;2023-08-12T05:13:59;5.28;;;3.85;;
44536;SDS011;30245;51.966;6.292;2023-08-12T05:16:24;9.05;;;5.68;;
44536;SDS011;30245;51.966;6.292;2023-08-12T05:18:50;11.48;;;6.68;;
44536;SDS011;30245;51.966;6.292;2023-08-12T05:21:16;7.05;;;5.90;;
44536;SDS011;30245;51.966;6.292;2023-08-12T05:23:43;8.10;;;6.05;;
44536;SDS011;30245;51.966;6.292;2023-08-12T05:26:08;8.77;;;6.00;;
44536;SDS011;30245;51.966;6.292;2023-08-12T05:28:34;6.10;;;5.40;;
44536;SDS011;30245;51.966;6.292;2023-08-12T05:30:59;9.45;;;5.38;;
44536;SDS011;30245;51.966;6.292;2023-08-12T05:33:25;6.07;;;4.82;;
44536;SDS011;30245;51.966;6.292;2023-08-12T05:35:51;5.20;;;4.63;;
44536;SDS011;30245;51.966;6.292;2023-08-12T05:38:16;9.88;;;5.97;;
44536;SDS011;30245;51.966;6.292;2023-08-12T05:40:42;10.18;;;6.93;;
44536;SDS011;30245;51.966;6.292;2023-08-12T05:43:07;6.53;;;4.88;;
44536;SDS011;30245;51.966;6.292;2023-08-12T05:45:33;5.88;;;4.00;;
44536;SDS011;30245;51.966;6.292;2023-08-12T05:47:59;5.32;;;4.20;;
44536;SDS011;30245;51.966;6.292;2023-08-12T05:50:24;4.20;;;3.58;;
44536;SDS011;30245;51.966;6.292;2023-08-12T05:52:50;4.93;;;4.40;;
44536;SDS011;30245;51.966;6.292;2023-08-12T05:55:16;5.13;;;4.50;;
44536;SDS011;30245;51.966;6.292;2023-08-12T05:57:41;6.35;;;4.93;;
44536;SDS011;30245;51.966;6.292;2023-08-12T06:00:07;8.40;;;4.85;;
44536;SDS011;30245;51.966;6.292;2023-08-12T06:02:33;5.32;;;4.88;;
44536;SDS011;30245;51.966;6.292;2023-08-12T06:04:58;4.03;;;3.38;;
44536;SDS011;30245;51.966;6.292;2023-08-12T06:07:24;9.18;;;5.20;;
44536;SDS011;30245;51.966;6.292;2023-08-12T06:09:50;5.35;;;4.85;;
44536;SDS011;30245;51.966;6.292;2023-08-12T06:12:16;7.18;;;4.55;;
44536;SDS011;30245;51.966;6.292;2023-08-12T06:14:41;7.03;;;4.85;;
44536;SDS011;30245;51.966;6.292;2023-08-12T06:17:07;9.50;;;4.97;;
44536;SDS011;30245;51.966;6.292;2023-08-12T06:19:33;6.70;;;4.03;;
44536;SDS011;30245;51.966;6.292;2023-08-12T06:21:59;4.47;;;3.63;;
44536;SDS011;30245;51.966;6.292;2023-08-12T06:24:24;6.93;;;5.15;;
44536;SDS011;30245;51.966;6.292;2023-08-12T06:26:50;4.20;;;3.47;;
44536;SDS011;30245;51.966;6.292;2023-08-12T06:29:16;7.60;;;4.28;;
44536;SDS011;30245;51.966;6.292;2023-08-12T06:31:41;5.60;;;2.72;;
44536;SDS011;30245;51.966;6.292;2023-08-12T06:34:07;5.35;;;2.67;;
44536;SDS011;30245;51.966;6.292;2023-08-12T06:36:32;4.43;;;2.55;;
44536;SDS011;30245;51.966;6.292;2023-08-12T06:38:58;3.10;;;2.28;;
44536;SDS011;30245;51.966;6.292;2023-08-12T06:41:24;2.42;;;1.80;;
44536;SDS011;30245;51.966;6.292;2023-08-12T06:43:49;3.13;;;1.73;;
44536;SDS011;30245;51.966;6.292;2023-08-12T06:46:15;3.25;;;2.55;;
44536;SDS011;30245;51.966;6.292;2023-08-12T06:48:40;3.28;;;2.20;;
44536;SDS011;30245;51.966;6.292;2023-08-12T06:51:06;3.33;;;2.58;;
44536;SDS011;30245;51.966;6.292;2023-08-12T06:53:38;1.88;;;1.63;;
44536;SDS011;30245;51.966;6.292;2023-08-12T06:56:04;3.95;;;2.78;;
44536;SDS011;30245;51.966;6.292;2023-08-12T06:58:30;3.33;;;2.08;;
44536;SDS011;30245;51.966;6.292;2023-08-12T07:00:55;2.88;;;2.58;;
44536;SDS011;30245;51.966;6.292;2023-08-12T07:03:22;4.35;;;3.22;;
44536;SDS011;30245;51.966;6.292;2023-08-12T07:05:48;5.20;;;3.03;;
44536;SDS011;30245;51.966;6.292;2023-08-12T07:08:13;3.15;;;2.55;;
44536;SDS011;30245;51.966;6.292;2023-08-12T07:10:39;3.63;;;2.20;;
44536;SDS011;30245;51.966;6.292;2023-08-12T07:13:06;3.17;;;2.55;;
44536;SDS011;30245;51.966;6.292;2023-08-12T07:15:32;3.15;;;2.20;;
44536;SDS011;30245;51.966;6.292;2023-08-12T07:17:58;3.65;;;2.72;;
44536;SDS011;30245;51.966;6.292;2023-08-12T07:20:24;3.78;;;2.83;;
44536;SDS011;30245;51.966;6.292;2023-08-12T07:22:50;4.32;;;3.42;;
44536;SDS011;30245;51.966;6.292;2023-08-12T07:25:16;5.75;;;4.00;;
44536;SDS011;30245;51.966;6.292;2023-08-12T07:27:42;4.80;;;3.08;;
44536;SDS011;30245;51.966;6.292;2023-08-12T07:30:07;4.15;;;3.15;;
44536;SDS011;30245;51.966;6.292;2023-08-12T07:32:35;4.13;;;2.85;;
44536;SDS011;30245;51.966;6.292;2023-08-12T07:35:01;2.83;;;2.53;;
44536;SDS011;30245;51.966;6.292;2023-08-12T07:37:28;4.65;;;2.83;;
44536;SDS011;30245;51.966;6.292;2023-08-12T07:39:54;1.88;;;1.30;;
44536;SDS011;30245;51.966;6.292;2023-08-12T07:42:19;2.13;;;1.85;;
44536;SDS011;30245;51.966;6.292;2023-08-12T07:44:45;3.17;;;1.90;;
44536;SDS011;30245;51.966;6.292;2023-08-12T07:47:11;3.20;;;1.92;;
44536;SDS011;30245;51.966;6.292;2023-08-12T07:49:37;2.30;;;1.17;;
44536;SDS011;30245;51.966;6.292;2023-08-12T07:52:03;1.33;;;0.82;;
44536;SDS011;30245;51.966;6.292;2023-08-12T07:54:29;2.58;;;1.10;;
44536;SDS011;30245;51.966;6.292;2023-08-12T07:56:54;1.67;;;0.82;;
44536;SDS011;30245;51.966;6.292;2023-08-12T07:59:20;1.83;;;0.70;;
44536;SDS011;30245;51.966;6.292;2023-08-12T08:01:46;0.98;;;0.45;;
44536;SDS011;30245;51.966;6.292;2023-08-12T08:04:12;1.20;;;0.50;;
44536;SDS011;30245;51.966;6.292;2023-08-12T08:06:37;0.95;;;0.52;;
44536;SDS011;30245;51.966;6.292;2023-08-12T08:09:03;1.70;;;0.70;;
44536;SDS011;30245;51.966;6.292;2023-08-12T08:11:29;2.35;;;0.70;;
44536;SDS011;30245;51.966;6.292;2023-08-12T08:13:57;3.03;;;0.83;;
44536;SDS011;30245;51.966;6.292;2023-08-12T08:16:23;2.63;;;0.90;;
44536;SDS011;30245;51.966;6.292;2023-08-12T08:18:49;1.02;;;0.70;;
44536;SDS011;30245;51.966;6.292;2023-08-12T08:21:14;1.40;;;0.70;;
44536;SDS011;30245;51.966;6.292;2023-08-12T08:23:40;1.20;;;0.63;;
44536;SDS011;30245;51.966;6.292;2023-08-12T08:26:07;2.53;;;0.60;;
44536;SDS011;30245;51.966;6.292;2023-08-12T08:28:33;1.42;;;0.60;;
44536;SDS011;30245;51.966;6.292;2023-08-12T08:30:59;1.52;;;0.55;;
44536;SDS011;30245;51.966;6.292;2023-08-12T08:33:25;1.30;;;0.70;;
44536;SDS011;30245;51.966;6.292;2023-08-12T08:35:51;1.00;;;0.60;;
44536;SDS011;30245;51.966;6.292;2023-08-12T08:38:18;0.70;;;0.43;;
44536;SDS011;30245;51.966;6.292;2023-08-12T08:40:44;0.77;;;0.43;;
44536;SDS011;30245;51.966;6.292;2023-08-12T08:43:09;1.50;;;0.50;;
44536;SDS011;30245;51.966;6.292;2023-08-12T08:45:40;1.65;;;0.57;;
44536;SDS011;30245;51.966;6.292;2023-08-12T08:48:07;0.60;;;0.30;;
44536;SDS011;30245;51.966;6.292;2023-08-12T08:50:33;1.52;;;0.28;;
44536;SDS011;30245;51.966;6.292;2023-08-12T08:52:59;0.80;;;0.30;;
44536;SDS011;30245;51.966;6.292;2023-08-12T08:55:27;0.47;;;0.25;;
44536;SDS011;30245;51.966;6.292;2023-08-12T08:57:52;0.70;;;0.25;;
44536;SDS011;30245;51.966;6.292;2023-08-12T09:00:19;0.77;;;0.25;;
44536;SDS011;30245;51.966;6.292;2023-08-12T09:02:48;0.40;;;0.20;;
44536;SDS011;30245;51.966;6.292;2023-08-12T09:05:15;0.50;;;0.30;;
44536;SDS011;30245;51.966;6.292;2023-08-12T09:07:42;0.73;;;0.20;;
44536;SDS011;30245;51.966;6.292;2023-08-12T09:10:09;0.40;;;0.20;;
44536;SDS011;30245;51.966;6.292;2023-08-12T09:12:35;0.50;;;0.30;;
44536;SDS011;30245;51.966;6.292;2023-08-12T09:15:02;0.35;;;0.20;;
44536;SDS011;30245;51.966;6.292;2023-08-12T09:17:29;0.50;;;0.30;;
44536;SDS011;30245;51.966;6.292;2023-08-12T09:19:55;0.77;;;0.30;;
44536;SDS011;30245;51.966;6.292;2023-08-12T09:22:20;0.35;;;0.13;;
44536;SDS011;30245;51.966;6.292;2023-08-12T09:24:50;2.17;;;0.20;;
44536;SDS011;30245;51.966;6.292;2023-08-12T09:27:21;0.30;;;0.20;;
44536;SDS011;30245;51.966;6.292;2023-08-12T09:29:46;1.38;;;0.22;;
44536;SDS011;30245;51.966;6.292;2023-08-12T09:32:12;0.28;;;0.20;;
44536;SDS011;30245;51.966;6.292;2023-08-12T09:34:52;0.85;;;0.22;;
44536;SDS011;30245;51.966;6.292;2023-08-12T09:37:20;0.40;;;0.22;;
44536;SDS011;30245;51.966;6.292;2023-08-12T09:39:47;0.40;;;0.30;;
44536;SDS011;30245;51.966;6.292;2023-08-12T09:42:14;0.40;;;0.20;;
44536;SDS011;30245;51.966;6.292;2023-08-12T09:44:41;0.85;;;0.30;;
44536;SDS011;30245;51.966;6.292;2023-08-12T09:47:07;1.45;;;0.40;;
44536;SDS011;30245;51.966;6.292;2023-08-12T09:49:34;0.60;;;0.30;;
44536;SDS011;30245;51.966;6.292;2023-08-12T09:52:00;1.25;;;0.30;;
44536;SDS011;30245;51.966;6.292;2023-08-12T09:54:27;0.77;;;0.47;;
44536;SDS011;30245;51.966;6.292;2023-08-12T09:56:57;1.35;;;0.40;;
44536;SDS011;30245;51.966;6.292;2023-08-12T09:59:24;0.80;;;0.40;;
44536;SDS011;30245;51.966;6.292;2023-08-12T10:01:54;0.90;;;0.50;;
44536;SDS011;30245;51.966;6.292;2023-08-12T10:04:21;0.65;;;0.40;;
44536;SDS011;30245;51.966;6.292;2023-08-12T10:06:49;1.83;;;0.95;;
44536;SDS011;30245;51.966;6.292;2023-08-12T10:09:15;0.70;;;0.50;;
44536;SDS011;30245;51.966;6.292;2023-08-12T10:11:42;0.95;;;0.55;;
44536;SDS011;30245;51.966;6.292;2023-08-12T10:14:11;0.47;;;0.30;;
44536;SDS011;30245;51.966;6.292;2023-08-12T10:16:38;1.08;;;0.30;;
44536;SDS011;30245;51.966;6.292;2023-08-12T10:19:04;0.47;;;0.35;;
44536;SDS011;30245;51.966;6.292;2023-08-12T10:21:31;0.40;;;0.22;;
44536;SDS011;30245;51.966;6.292;2023-08-12T10:24:00;0.50;;;0.30;;
44536;SDS011;30245;51.966;6.292;2023-08-12T10:26:28;0.40;;;0.28;;
44536;SDS011;30245;51.966;6.292;2023-08-12T10:28:55;0.40;;;0.20;;
44536;SDS011;30245;51.966;6.292;2023-08-12T10:31:21;0.15;;;0.10;;
44536;SDS011;30245;51.966;6.292;2023-08-12T10:33:47;0.22;;;0.20;;
44536;SDS011;30245;51.966;6.292;2023-08-12T10:36:15;0.28;;;0.10;;
44536;SDS011;30245;51.966;6.292;2023-08-12T10:38:41;1.10;;;0.20;;
44536;SDS011;30245;51.966;6.292;2023-08-12T10:44:15;0.20;;;0.10;;
44536;SDS011;30245;51.966;6.292;2023-08-12T10:46:34;0.30;;;0.00;;
44536;SDS011;30245;51.966;6.292;2023-08-12T10:49:05;0.25;;;0.10;;
44536;SDS011;30245;51.966;6.292;2023-08-12T10:51:38;0.20;;;0.05;;
44536;SDS011;30245;51.966;6.292;2023-08-12T10:54:21;0.10;;;0.00;;
44536;SDS011;30245;51.966;6.292;2023-08-12T11:02:18;0.10;;;0.10;;
44536;SDS011;30245;51.966;6.292;2023-08-12T11:04:46;0.05;;;0.00;;
44536;SDS011;30245;51.966;6.292;2023-08-12T11:07:32;0.20;;;0.10;;
44536;SDS011;30245;51.966;6.292;2023-08-12T11:10:03;0.10;;;0.00;;
44536;SDS011;30245;51.966;6.292;2023-08-12T11:12:41;0.32;;;0.10;;
44536;SDS011;30245;51.966;6.292;2023-08-12T11:17:58;0.10;;;0.00;;
44536;SDS011;30245;51.966;6.292;2023-08-12T11:22:53;1.20;;;0.00;;
44536;SDS011;30245;51.966;6.292;2023-08-12T11:25:19;0.43;;;0.10;;
44536;SDS011;30245;51.966;6.292;2023-08-12T11:27:45;0.20;;;0.10;;
44536;SDS011;30245;51.966;6.292;2023-08-12T11:30:13;0.25;;;0.00;;
44536;SDS011;30245;51.966;6.292;2023-08-12T11:32:40;0.40;;;0.10;;
44536;SDS011;30245;51.966;6.292;2023-08-12T11:35:11;0.38;;;0.20;;
44536;SDS011;30245;51.966;6.292;2023-08-12T11:37:39;0.15;;;0.10;;
44536;SDS011;30245;51.966;6.292;2023-08-12T11:40:06;0.20;;;0.10;;
44536;SDS011;30245;51.966;6.292;2023-08-12T11:42:36;0.08;;;0.00;;
44536;SDS011;30245;51.966;6.292;2023-08-12T11:45:04;0.50;;;0.10;;
44536;SDS011;30245;51.966;6.292;2023-08-12T11:47:30;0.40;;;0.20;;
44536;SDS011;30245;51.966;6.292;2023-08-12T11:49:56;0.40;;;0.10;;
44536;SDS011;30245;51.966;6.292;2023-08-12T11:52:21;0.50;;;0.20;;
44536;SDS011;30245;51.966;6.292;2023-08-12T11:54:51;2.58;;;0.15;;
44536;SDS011;30245;51.966;6.292;2023-08-12T11:57:18;0.20;;;0.10;;
44536;SDS011;30245;51.966;6.292;2023-08-12T11:59:43;0.77;;;0.15;;
44536;SDS011;30245;51.966;6.292;2023-08-12T12:02:10;0.90;;;0.10;;
44536;SDS011;30245;51.966;6.292;2023-08-12T12:04:36;0.80;;;0.10;;
44536;SDS011;30245;51.966;6.292;2023-08-12T12:07:01;1.70;;;0.20;;
44536;SDS011;30245;51.966;6.292;2023-08-12T12:09:31;1.48;;;0.35;;
44536;SDS011;30245;51.966;6.292;2023-08-12T12:11:57;0.57;;;0.20;;
44536;SDS011;30245;51.966;6.292;2023-08-12T12:14:24;0.45;;;0.17;;
44536;SDS011;30245;51.966;6.292;2023-08-12T12:16:50;0.82;;;0.20;;
44536;SDS011;30245;51.966;6.292;2023-08-12T12:19:19;0.38;;;0.10;;
44536;SDS011;30245;51.966;6.292;2023-08-12T12:21:50;0.90;;;0.30;;
44536;SDS011;30245;51.966;6.292;2023-08-12T12:24:19;1.38;;;0.30;;
44536;SDS011;30245;51.966;6.292;2023-08-12T12:26:45;8.90;;;0.30;;
44536;SDS011;30245;51.966;6.292;2023-08-12T12:29:12;0.90;;;0.10;;
44536;SDS011;30245;51.966;6.292;2023-08-12T12:31:39;0.70;;;0.23;;
44536;SDS011;30245;51.966;6.292;2023-08-12T12:34:05;1.53;;;0.20;;
44536;SDS011;30245;51.966;6.292;2023-08-12T12:36:33;2.67;;;0.32;;
44536;SDS011;30245;51.966;6.292;2023-08-12T12:39:00;0.52;;;0.10;;
44536;SDS011;30245;51.966;6.292;2023-08-12T12:41:27;1.27;;;0.40;;
44536;SDS011;30245;51.966;6.292;2023-08-12T12:43:52;1.20;;;0.20;;
44536;SDS011;30245;51.966;6.292;2023-08-12T12:46:18;0.60;;;0.30;;
44536;SDS011;30245;51.966;6.292;2023-08-12T12:48:44;0.75;;;0.20;;
44536;SDS011;30245;51.966;6.292;2023-08-12T12:51:10;0.65;;;0.20;;
44536;SDS011;30245;51.966;6.292;2023-08-12T12:53:37;1.55;;;0.20;;
44536;SDS011;30245;51.966;6.292;2023-08-12T12:56:02;0.68;;;0.57;;
44536;SDS011;30245;51.966;6.292;2023-08-12T12:58:36;0.80;;;0.20;;
44536;SDS011;30245;51.966;6.292;2023-08-12T13:01:02;1.48;;;0.25;;
44536;SDS011;30245;51.966;6.292;2023-08-12T13:03:32;0.77;;;0.20;;
44536;SDS011;30245;51.966;6.292;2023-08-12T13:05:57;1.42;;;0.13;;
44536;SDS011;30245;51.966;6.292;2023-08-12T13:08:23;2.15;;;0.30;;
44536;SDS011;30245;51.966;6.292;2023-08-12T13:10:50;1.77;;;0.30;;
44536;SDS011;30245;51.966;6.292;2023-08-12T13:13:18;1.40;;;0.17;;
44536;SDS011;30245;51.966;6.292;2023-08-12T13:15:44;1.80;;;0.28;;
44536;SDS011;30245;51.966;6.292;2023-08-12T13:18:10;0.98;;;0.20;;
44536;SDS011;30245;51.966;6.292;2023-08-12T13:20:36;2.25;;;0.55;;
44536;SDS011;30245;51.966;6.292;2023-08-12T13:23:02;1.65;;;0.20;;
44536;SDS011;30245;51.966;6.292;2023-08-12T13:25:30;1.15;;;0.20;;
44536;SDS011;30245;51.966;6.292;2023-08-12T13:27:58;0.85;;;0.30;;
44536;SDS011;30245;51.966;6.292;2023-08-12T13:30:24;0.82;;;0.30;;
44536;SDS011;30245;51.966;6.292;2023-08-12T13:32:50;3.45;;;0.47;;
44536;SDS011;30245;51.966;6.292;2023-08-12T13:35:16;1.23;;;0.22;;
44536;SDS011;30245;51.966;6.292;2023-08-12T13:37:42;0.73;;;0.20;;
44536;SDS011;30245;51.966;6.292;2023-08-12T13:40:08;1.83;;;0.47;;
44536;SDS011;30245;51.966;6.292;2023-08-12T13:42:34;1.02;;;0.30;;
44536;SDS011;30245;51.966;6.292;2023-08-12T13:45:00;1.67;;;0.30;;
44536;SDS011;30245;51.966;6.292;2023-08-12T13:47:26;1.00;;;0.20;;
44536;SDS011;30245;51.966;6.292;2023-08-12T13:49:51;1.63;;;0.30;;
44536;SDS011;30245;51.966;6.292;2023-08-12T13:52:17;1.33;;;0.22;;
44536;SDS011;30245;51.966;6.292;2023-08-12T13:54:43;1.73;;;0.22;;
44536;SDS011;30245;51.966;6.292;2023-08-12T13:57:08;9.85;;;0.43;;
44536;SDS011;30245;51.966;6.292;2023-08-12T13:59:34;2.65;;;0.60;;
44536;SDS011;30245;51.966;6.292;2023-08-12T14:01:59;2.90;;;0.22;;
44536;SDS011;30245;51.966;6.292;2023-08-12T14:04:25;1.55;;;0.30;;
44536;SDS011;30245;51.966;6.292;2023-08-12T14:06:51;0.85;;;0.20;;
44536;SDS011;30245;51.966;6.292;2023-08-12T14:09:16;0.40;;;0.10;;
44536;SDS011;30245;51.966;6.292;2023-08-12T14:11:43;2.72;;;0.10;;
44536;SDS011;30245;51.966;6.292;2023-08-12T14:14:09;3.72;;;0.47;;
44536;SDS011;30245;51.966;6.292;2023-08-12T14:16:35;5.47;;;0.65;;
44536;SDS011;30245;51.966;6.292;2023-08-12T14:19:00;3.70;;;0.40;;
44536;SDS011;30245;51.966;6.292;2023-08-12T14:21:26;1.02;;;0.22;;
44536;SDS011;30245;51.966;6.292;2023-08-12T14:23:52;1.45;;;0.17;;
44536;SDS011;30245;51.966;6.292;2023-08-12T14:26:17;1.67;;;0.20;;
44536;SDS011;30245;51.966;6.292;2023-08-12T14:28:43;1.48;;;0.20;;
44536;SDS011;30245;51.966;6.292;2023-08-12T14:31:08;2.08;;;0.28;;
44536;SDS011;30245;51.966;6.292;2023-08-12T14:33:34;0.93;;;0.20;;
44536;SDS011;30245;51.966;6.292;2023-08-12T14:36:01;3.35;;;0.60;;
44536;SDS011;30245;51.966;6.292;2023-08-12T14:38:27;0.85;;;0.20;;
44536;SDS011;30245;51.966;6.292;2023-08-12T14:40:53;3.55;;;0.32;;
44536;SDS011;30245;51.966;6.292;2023-08-12T14:43:18;3.75;;;0.50;;
44536;SDS011;30245;51.966;6.292;2023-08-12T14:45:44;3.50;;;0.30;;
44536;SDS011;30245;51.966;6.292;2023-08-12T14:48:10;3.20;;;0.30;;
44536;SDS011;30245;51.966;6.292;2023-08-12T14:50:39;1.90;;;0.30;;
44536;SDS011;30245;51.966;6.292;2023-08-12T14:53:05;2.55;;;0.70;;
44536;SDS011;30245;51.966;6.292;2023-08-12T14:55:31;2.70;;;0.30;;
44536;SDS011;30245;51.966;6.292;2023-08-12T14:57:56;3.53;;;0.47;;
44536;SDS011;30245;51.966;6.292;2023-08-12T15:00:22;1.55;;;0.50;;
44536;SDS011;30245;51.966;6.292;2023-08-12T15:02:47;1.92;;;0.30;;